createdAt,value
2023-04-10T00:02:25.071Z,11.50
2023-04-10T00:05:14.176Z,11.40
2023-04-10T00:08:03.466Z,11.30
2023-04-10T00:10:53.311Z,11.40
2023-04-10T00:13:43.388Z,11.30
2023-04-10T00:16:32.322Z,11.40
2023-04-10T00:19:21.139Z,11.40
2023-04-10T00:22:10.025Z,11.30
2023-04-10T00:24:58.626Z,11.30
2023-04-10T00:27:47.239Z,11.20
2023-04-10T00:30:37.360Z,11.20
2023-04-10T00:33:26.271Z,11.30
2023-04-10T00:36:15.084Z,11.30
2023-04-10T00:39:04.195Z,11.40
2023-04-10T00:41:52.953Z,11.50
2023-04-10T00:44:41.733Z,11.50
2023-04-10T00:47:32.382Z,11.30
2023-04-10T00:50:22.188Z,11.40
2023-04-10T00:53:11.302Z,11.30
2023-04-10T00:56:01.898Z,11.20
2023-04-10T00:58:51.192Z,11.30
2023-04-10T01:01:40.202Z,11.10
2023-04-10T01:04:31.456Z,11.10
2023-04-10T01:07:28.821Z,11.10
2023-04-10T01:10:25.451Z,11.20
2023-04-10T01:13:23.207Z,11.00
2023-04-10T01:16:20.839Z,11.00
2023-04-10T01:19:24.866Z,10.70
2023-04-10T01:22:17.532Z,10.60
2023-04-10T01:25:32.033Z,10.70
2023-04-10T01:28:53.742Z,10.70
2023-04-10T01:31:47.742Z,10.70
2023-04-10T01:34:41.756Z,10.70
2023-04-10T01:37:33.654Z,10.60
2023-04-10T01:40:23.497Z,10.70
2023-04-10T01:43:14.217Z,10.80
2023-04-10T01:46:11.389Z,10.80
2023-04-10T01:49:03.547Z,10.70
2023-04-10T01:51:54.397Z,10.80
2023-04-10T01:54:45.657Z,10.70
2023-04-10T01:57:37.774Z,10.70
2023-04-10T02:00:26.852Z,10.70
2023-04-10T02:03:17.401Z,10.80
2023-04-10T02:06:16.015Z,10.70
2023-04-10T02:09:12.384Z,10.60
2023-04-10T02:12:06.904Z,10.60
2023-04-10T02:14:58.158Z,10.70
2023-04-10T02:17:47.784Z,10.70
2023-04-10T02:20:38.708Z,10.80
2023-04-10T02:23:27.652Z,10.80
2023-04-10T02:26:17.085Z,10.80
2023-04-10T02:29:05.730Z,10.80
2023-04-10T02:31:57.113Z,10.80
2023-04-10T02:34:46.051Z,10.90
2023-04-10T02:37:37.270Z,10.90
2023-04-10T02:40:26.149Z,10.90
2023-04-10T02:43:30.518Z,11.00
2023-04-10T02:46:19.613Z,10.80
2023-04-10T02:49:08.734Z,10.80
2023-04-10T02:51:57.569Z,10.90
2023-04-10T02:54:47.770Z,11.00
2023-04-10T02:57:36.823Z,11.00
2023-04-10T03:00:26.109Z,10.90
2023-04-10T03:03:41.261Z,10.90
2023-04-10T03:06:30.476Z,10.90
2023-04-10T03:09:20.251Z,11.00
2023-04-10T03:12:10.630Z,10.90
2023-04-10T03:14:59.554Z,10.90
2023-04-10T03:17:48.623Z,10.80
2023-04-10T03:20:38.630Z,10.70
2023-04-10T03:23:27.357Z,10.60
2023-04-10T03:26:16.046Z,10.70
2023-04-10T03:29:06.310Z,10.80
2023-04-10T03:31:56.459Z,10.80
2023-04-10T03:34:46.302Z,10.70
2023-04-10T03:37:36.357Z,10.80
2023-04-10T03:40:25.429Z,10.70
2023-04-10T03:43:14.319Z,10.80
2023-04-10T03:46:04.574Z,10.80
2023-04-10T03:48:54.314Z,10.70
2023-04-10T03:51:43.617Z,10.60
2023-04-10T03:54:32.302Z,10.60
2023-04-10T03:57:21.377Z,10.60
2023-04-10T04:00:13.158Z,10.60
2023-04-10T04:03:13.072Z,10.80
2023-04-10T04:06:11.239Z,10.80
2023-04-10T04:09:04.405Z,10.80
2023-04-10T04:12:17.945Z,10.80
2023-04-10T04:15:38.792Z,10.80
2023-04-10T04:18:40.362Z,10.70
2023-04-10T04:21:52.139Z,10.70
2023-04-10T04:25:02.507Z,10.80
2023-04-10T04:28:07.906Z,10.80
2023-04-10T04:31:19.787Z,10.90
2023-04-10T04:34:29.845Z,10.80
2023-04-10T04:37:37.301Z,10.90
2023-04-10T04:40:44.370Z,11.00
2023-04-10T04:44:08.744Z,10.90
2023-04-10T04:47:26.731Z,11.00
2023-04-10T04:50:19.858Z,11.10
2023-04-10T04:53:44.150Z,11.20
2023-04-10T04:56:51.556Z,11.20
2023-04-10T04:59:51.222Z,11.20
2023-04-10T05:03:00.036Z,11.20
2023-04-10T05:06:00.174Z,11.40
2023-04-10T05:09:14.820Z,11.40
2023-04-10T05:12:08.947Z,11.50
2023-04-10T05:15:18.293Z,11.50
2023-04-10T05:18:33.452Z,11.70
2023-04-10T05:21:35.542Z,11.80
2023-04-10T05:24:28.654Z,11.80
2023-04-10T05:27:34.838Z,12.00
2023-04-10T05:30:29.478Z,12.00
2023-04-10T05:33:53.332Z,12.10
2023-04-10T05:37:13.177Z,12.20
2023-04-10T05:40:28.086Z,12.20
2023-04-10T05:43:39.872Z,12.50
2023-04-10T05:46:34.417Z,12.40
2023-04-10T05:49:43.833Z,12.50
2023-04-10T05:53:03.612Z,12.00
2023-04-10T05:56:13.656Z,12.10
2023-04-10T05:59:02.409Z,11.90
2023-04-10T06:02:17.433Z,12.10
2023-04-10T06:05:07.576Z,12.10
2023-04-10T06:07:58.567Z,12.60
2023-04-10T06:10:49.359Z,12.90
2023-04-10T06:13:38.202Z,12.60
2023-04-10T06:16:26.996Z,12.70
2023-04-10T06:19:16.723Z,12.30
2023-04-10T06:22:05.440Z,12.10
2023-04-10T06:24:54.187Z,12.50
2023-04-10T06:27:45.158Z,12.70
2023-04-10T06:30:34.771Z,12.50
2023-04-10T06:33:25.781Z,12.50
2023-04-10T06:36:15.963Z,12.40
2023-04-10T06:39:10.065Z,12.50
2023-04-10T06:41:59.420Z,12.50
2023-04-10T06:45:05.594Z,12.60
2023-04-10T06:47:54.494Z,12.40
2023-04-10T06:50:43.226Z,12.30
2023-04-10T06:53:32.274Z,12.50
2023-04-10T06:56:21.350Z,12.50
2023-04-10T06:59:10.209Z,12.90
2023-04-10T07:02:00.474Z,13.20
2023-04-10T07:04:50.117Z,13.70
2023-04-10T07:07:38.915Z,14.50
2023-04-10T07:10:27.767Z,15.00
2023-04-10T07:13:16.407Z,15.40
2023-04-10T07:16:05.272Z,15.70
2023-04-10T07:18:55.737Z,15.50
2023-04-10T07:21:45.148Z,15.70
2023-04-10T07:24:34.074Z,16.40
2023-04-10T07:27:23.389Z,17.00
2023-04-10T07:30:13.794Z,17.00
2023-04-10T07:33:02.837Z,17.00
2023-04-10T07:35:53.461Z,16.40
2023-04-10T07:38:43.388Z,16.30
2023-04-10T07:41:32.329Z,16.10
2023-04-10T07:44:21.234Z,16.70
2023-04-10T07:47:10.045Z,17.30
2023-04-10T07:49:58.818Z,17.30
2023-04-10T07:52:49.898Z,16.60
2023-04-10T07:55:41.840Z,16.30
2023-04-10T07:58:31.257Z,16.20
2023-04-10T08:01:19.988Z,16.80
2023-04-10T08:04:09.397Z,16.80
2023-04-10T08:06:58.502Z,16.90
2023-04-10T08:09:48.694Z,16.70
2023-04-10T08:12:38.441Z,16.50
2023-04-10T08:15:27.247Z,16.70
2023-04-10T08:18:15.973Z,16.50
2023-04-10T08:21:04.796Z,16.70
2023-04-10T08:23:54.144Z,17.20
2023-04-10T08:26:44.212Z,17.20
2023-04-10T08:29:33.158Z,18.00
2023-04-10T08:32:21.852Z,18.00
2023-04-10T08:35:11.276Z,18.40
2023-04-10T08:38:12.525Z,18.80
2023-04-10T08:41:02.981Z,18.80
2023-04-10T08:43:53.536Z,18.50
2023-04-10T08:46:44.934Z,19.50
2023-04-10T08:49:41.925Z,19.60
2023-04-10T08:52:32.531Z,19.70
2023-04-10T08:55:21.676Z,19.00
2023-04-10T08:58:11.578Z,18.70
2023-04-10T09:01:02.287Z,18.50
2023-04-10T09:03:51.560Z,18.70
2023-04-10T09:06:40.485Z,18.60
2023-04-10T09:09:32.523Z,18.80
2023-04-10T09:12:21.301Z,18.80
2023-04-10T09:15:10.429Z,19.10
2023-04-10T09:18:02.703Z,18.80
2023-04-10T09:20:51.956Z,18.30
2023-04-10T09:23:40.907Z,17.70
2023-04-10T09:26:31.098Z,17.60
2023-04-10T09:29:20.911Z,17.30
2023-04-10T09:32:09.605Z,16.80
2023-04-10T09:35:00.168Z,16.70
2023-04-10T09:37:48.888Z,16.90
2023-04-10T09:40:37.795Z,16.80
2023-04-10T09:43:28.555Z,16.90
2023-04-10T09:46:28.805Z,17.30
2023-04-10T09:49:18.404Z,17.30
2023-04-10T09:52:20.004Z,17.00
2023-04-10T09:55:09.769Z,16.70
2023-04-10T09:57:59.927Z,16.80
2023-04-10T10:01:13.784Z,17.30
2023-04-10T10:04:04.740Z,17.70
2023-04-10T10:06:53.818Z,17.70
2023-04-10T10:09:44.971Z,18.50
2023-04-10T10:12:41.717Z,18.50
2023-04-10T10:15:38.290Z,18.70
2023-04-10T10:18:33.911Z,18.20
2023-04-10T10:21:23.433Z,17.90
2023-04-10T10:24:14.374Z,17.90
2023-04-10T10:27:10.561Z,17.20
2023-04-10T10:30:08.422Z,17.20
2023-04-10T10:33:01.930Z,17.10
2023-04-10T10:35:51.666Z,16.50
2023-04-10T10:38:44.749Z,16.70
2023-04-10T10:41:41.955Z,17.00
2023-04-10T10:44:40.066Z,16.70
2023-04-10T10:47:31.413Z,16.80
2023-04-10T10:50:22.241Z,17.40
2023-04-10T10:53:35.627Z,17.60
2023-04-10T10:56:37.733Z,17.00
2023-04-10T10:59:58.025Z,17.20
2023-04-10T11:02:46.883Z,17.10
2023-04-10T11:05:51.540Z,17.10
2023-04-10T11:08:46.657Z,17.30
2023-04-10T11:11:59.371Z,17.40
2023-04-10T11:15:00.915Z,17.50
2023-04-10T11:17:52.036Z,16.90
2023-04-10T11:21:11.017Z,16.90
2023-04-10T11:24:06.692Z,17.30
2023-04-10T11:26:56.305Z,17.60
2023-04-10T11:29:45.137Z,17.70
2023-04-10T11:32:43.041Z,17.60
2023-04-10T11:35:32.965Z,17.80
2023-04-10T11:38:21.801Z,18.10
2023-04-10T11:41:10.658Z,18.10
2023-04-10T11:44:00.128Z,17.70
2023-04-10T11:46:51.321Z,17.90
2023-04-10T11:49:41.527Z,17.60
2023-04-10T11:52:30.548Z,17.70
2023-04-10T11:55:20.317Z,18.10
2023-04-10T11:58:26.822Z,18.30
2023-04-10T12:01:15.717Z,18.30
2023-04-10T12:04:05.148Z,18.30
2023-04-10T12:06:58.648Z,18.20
2023-04-10T12:09:47.551Z,18.10
2023-04-10T12:12:37.112Z,18.20
2023-04-10T12:15:29.115Z,18.50
2023-04-10T12:18:18.364Z,18.80
2023-04-10T12:21:08.906Z,18.50
2023-04-10T12:23:59.390Z,18.10
2023-04-10T12:26:50.726Z,18.10
2023-04-10T12:29:39.475Z,17.60
2023-04-10T12:32:28.330Z,17.40
2023-04-10T12:35:20.285Z,17.50
2023-04-10T12:38:09.021Z,17.90
2023-04-10T12:41:02.302Z,18.00
2023-04-10T12:43:51.314Z,17.90
2023-04-10T12:46:41.094Z,18.10
2023-04-10T12:49:29.884Z,18.00
2023-04-10T12:52:24.312Z,18.00
2023-04-10T12:55:15.177Z,18.00
2023-04-10T12:58:20.412Z,18.10
2023-04-10T13:01:10.613Z,18.10
2023-04-10T13:04:00.304Z,18.10
2023-04-10T13:06:52.882Z,18.10
2023-04-10T13:09:41.818Z,18.10
2023-04-10T13:12:30.765Z,18.10
2023-04-10T13:15:24.529Z,18.30
2023-04-10T13:18:13.458Z,17.90
2023-04-10T13:21:02.300Z,17.90
2023-04-10T13:23:50.951Z,18.00
2023-04-10T13:26:39.644Z,18.30
2023-04-10T13:29:29.071Z,18.40
2023-04-10T13:32:19.609Z,18.10
2023-04-10T13:35:09.105Z,18.00
2023-04-10T13:37:57.784Z,17.70
2023-04-10T13:40:46.433Z,17.60
2023-04-10T13:43:35.148Z,17.40
2023-04-10T13:46:23.895Z,16.90
2023-04-10T13:49:17.440Z,16.80
2023-04-10T13:52:06.118Z,16.70
2023-04-10T13:54:54.785Z,16.80
2023-04-10T13:57:43.463Z,16.50
2023-04-10T14:00:32.488Z,16.40
2023-04-10T14:03:21.389Z,16.30
2023-04-10T14:06:11.627Z,16.50
2023-04-10T14:09:01.122Z,16.60
2023-04-10T14:11:49.884Z,16.30
2023-04-10T14:14:38.661Z,16.30
2023-04-10T14:17:28.276Z,16.40
2023-04-10T14:20:17.028Z,16.20
2023-04-10T14:23:07.161Z,16.30
2023-04-10T14:25:55.900Z,16.30
2023-04-10T14:28:44.548Z,16.20
2023-04-10T14:31:33.735Z,16.10
2023-04-10T14:34:24.436Z,16.10
2023-04-10T14:37:15.295Z,16.10
2023-04-10T14:40:07.010Z,16.20
2023-04-10T14:42:55.808Z,16.40
2023-04-10T14:45:44.670Z,16.50
2023-04-10T14:48:33.623Z,16.60
2023-04-10T14:51:22.475Z,16.70
2023-04-10T14:54:11.230Z,16.70
2023-04-10T14:57:02.028Z,16.60
2023-04-10T14:59:50.765Z,16.50
2023-04-10T15:02:39.715Z,16.30
2023-04-10T15:05:32.137Z,16.20
2023-04-10T15:08:20.853Z,16.30
2023-04-10T15:11:09.667Z,15.90
2023-04-10T15:14:00.349Z,15.90
2023-04-10T15:16:50.617Z,15.80
2023-04-10T15:19:40.875Z,16.00
2023-04-10T15:22:30.460Z,16.00
2023-04-10T15:25:19.537Z,16.00
2023-04-10T15:28:09.005Z,16.10
2023-04-10T15:30:59.050Z,16.10
2023-04-10T15:33:47.773Z,16.10
2023-04-10T15:36:36.482Z,16.10
2023-04-10T15:39:25.207Z,16.20
2023-04-10T15:42:16.043Z,16.20
2023-04-10T15:45:05.006Z,16.20
2023-04-10T15:47:55.221Z,16.20
2023-04-10T15:50:44.130Z,16.20
2023-04-10T15:53:33.129Z,16.20
2023-04-10T15:56:21.899Z,16.20
2023-04-10T15:59:10.598Z,16.30
2023-04-10T16:01:59.764Z,16.30
2023-04-10T16:04:50.376Z,16.30
2023-04-10T16:07:41.189Z,16.20
2023-04-10T16:10:30.610Z,16.10
2023-04-10T16:13:20.528Z,16.20
2023-04-10T16:16:14.792Z,16.20
2023-04-10T16:19:03.814Z,16.20
2023-04-10T16:21:54.322Z,16.20
2023-04-10T16:24:43.093Z,16.20
2023-04-10T16:27:32.216Z,16.20
2023-04-10T16:30:21.528Z,16.10
2023-04-10T16:33:10.512Z,16.00
2023-04-10T16:35:59.699Z,15.80
2023-04-10T16:38:50.488Z,15.80
2023-04-10T16:41:39.554Z,15.80
2023-04-10T16:44:29.010Z,15.70
2023-04-10T16:47:17.856Z,15.70
2023-04-10T16:50:08.826Z,15.60
2023-04-10T16:52:57.879Z,15.60
2023-04-10T16:55:48.122Z,15.60
2023-04-10T16:58:37.834Z,15.60
2023-04-10T17:01:29.224Z,15.70
2023-04-10T17:04:19.971Z,15.70
2023-04-10T17:07:08.833Z,15.60
2023-04-10T17:09:57.608Z,15.60
2023-04-10T17:12:47.936Z,15.50
2023-04-10T17:15:37.555Z,15.50
2023-04-10T17:18:28.330Z,15.50
2023-04-10T17:21:17.276Z,15.50
2023-04-10T17:24:06.608Z,15.50
2023-04-10T17:26:57.260Z,15.50
2023-04-10T17:29:47.630Z,15.50
2023-04-10T17:32:36.469Z,15.40
2023-04-10T17:35:25.562Z,15.40
2023-04-10T17:38:14.225Z,15.40
2023-04-10T17:41:04.044Z,15.40
2023-04-10T17:43:53.060Z,15.40
2023-04-10T17:46:43.254Z,15.30
2023-04-10T17:49:32.227Z,15.20
2023-04-10T17:52:20.999Z,15.20
2023-04-10T17:55:10.563Z,15.10
2023-04-10T17:57:59.597Z,15.10
2023-04-10T18:00:48.544Z,15.10
2023-04-10T18:03:38.830Z,15.10
2023-04-10T18:06:28.100Z,15.00
2023-04-10T18:09:17.416Z,15.00
2023-04-10T18:12:06.273Z,15.00
2023-04-10T18:14:54.952Z,15.00
2023-04-10T18:17:43.815Z,15.00
2023-04-10T18:20:34.033Z,14.90
2023-04-10T18:23:25.185Z,14.90
2023-04-10T18:26:14.324Z,14.90
2023-04-10T18:29:03.568Z,14.80
2023-04-10T18:31:52.432Z,14.80
2023-04-10T18:34:41.606Z,14.90
2023-04-10T18:37:32.282Z,14.90
2023-04-10T18:40:22.361Z,14.90
2023-04-10T18:43:11.136Z,14.80
2023-04-10T18:45:59.922Z,14.70
2023-04-10T18:48:50.573Z,14.70
2023-04-10T18:51:40.806Z,14.60
2023-04-10T18:54:32.280Z,14.60
2023-04-10T18:57:21.121Z,14.70
2023-04-10T19:00:12.423Z,14.70
2023-04-10T19:03:01.472Z,14.70
2023-04-10T19:05:50.466Z,14.70
2023-04-10T19:08:39.240Z,14.70
2023-04-10T19:11:30.170Z,14.60
2023-04-10T19:14:19.278Z,14.60
2023-04-10T19:17:08.546Z,14.70
2023-04-10T19:19:58.241Z,14.70
2023-04-10T19:22:47.272Z,14.70
2023-04-10T19:25:36.148Z,14.50
2023-04-10T19:28:27.179Z,14.50
2023-04-10T19:31:16.197Z,14.50
2023-04-10T19:34:09.290Z,14.50
2023-04-10T19:36:58.037Z,14.40
2023-04-10T19:39:46.724Z,14.40
2023-04-10T19:42:35.956Z,14.60
2023-04-10T19:45:28.180Z,14.50
2023-04-10T19:48:17.081Z,14.40
2023-04-10T19:51:06.299Z,14.40
2023-04-10T19:53:56.070Z,14.20
2023-04-10T19:56:45.198Z,14.10
2023-04-10T19:59:34.066Z,14.20
2023-04-10T20:02:24.465Z,14.20
2023-04-10T20:05:13.599Z,14.20
2023-04-10T20:08:02.389Z,14.10
2023-04-10T20:10:51.092Z,14.10
2023-04-10T20:13:41.084Z,14.10
2023-04-10T20:16:30.146Z,14.20
2023-04-10T20:19:20.304Z,14.30
2023-04-10T20:22:09.740Z,14.20
2023-04-10T20:24:58.424Z,14.00
2023-04-10T20:27:47.292Z,14.00
2023-04-10T20:30:38.041Z,14.00
2023-04-10T20:33:27.670Z,14.00
2023-04-10T20:36:17.931Z,14.00
2023-04-10T20:39:07.241Z,13.90
2023-04-10T20:41:57.382Z,13.90
2023-04-10T20:44:46.368Z,13.80
2023-04-10T20:47:35.342Z,13.80
2023-04-10T20:50:24.126Z,13.80
2023-04-10T20:53:14.494Z,13.70
2023-04-10T20:56:06.033Z,13.70
2023-04-10T20:58:55.466Z,13.70
2023-04-10T21:01:44.731Z,13.60
2023-04-10T21:04:34.025Z,13.60
2023-04-10T21:07:22.876Z,13.50
2023-04-10T21:10:13.162Z,13.40
2023-04-10T21:13:03.590Z,13.50
2023-04-10T21:15:52.426Z,13.40
2023-04-10T21:18:41.253Z,13.30
2023-04-10T21:21:31.225Z,13.40
2023-04-10T21:24:20.148Z,13.30
2023-04-10T21:27:10.387Z,13.40
2023-04-10T21:29:59.463Z,13.40
2023-04-10T21:32:48.224Z,13.40
2023-04-10T21:35:37.081Z,13.40
2023-04-10T21:38:28.892Z,13.40
2023-04-10T21:41:17.622Z,13.30
2023-04-10T21:44:08.933Z,13.20
2023-04-10T21:46:57.712Z,13.20
2023-04-10T21:49:46.424Z,13.30
2023-04-10T21:52:35.139Z,13.20
2023-04-10T21:55:24.014Z,13.30
2023-04-10T21:58:12.780Z,13.20
2023-04-10T22:01:03.454Z,13.20
2023-04-10T22:03:53.518Z,13.10
2023-04-10T22:06:42.318Z,13.10
2023-04-10T22:09:31.155Z,13.00
2023-04-10T22:12:19.940Z,12.90
2023-04-10T22:15:09.818Z,12.80
2023-04-10T22:17:59.981Z,12.70
2023-04-10T22:20:49.370Z,12.70
2023-04-10T22:23:38.055Z,12.70
2023-04-10T22:26:26.952Z,12.70
2023-04-10T22:29:15.727Z,12.60
2023-04-10T22:32:05.818Z,12.60
2023-04-10T22:34:55.961Z,12.70
2023-04-10T22:37:44.774Z,12.70
2023-04-10T22:40:33.632Z,12.80
2023-04-10T22:43:22.222Z,12.60
2023-04-10T22:46:11.140Z,12.40
2023-04-10T22:48:59.839Z,12.60
2023-04-10T22:51:49.870Z,12.60
2023-04-10T22:54:38.546Z,12.60
2023-04-10T22:57:28.054Z,12.40
2023-04-10T23:00:17.487Z,12.30
2023-04-10T23:03:06.350Z,12.30
2023-04-10T23:05:55.208Z,12.20
2023-04-10T23:08:45.391Z,12.20
2023-04-10T23:11:36.707Z,12.20
2023-04-10T23:14:25.323Z,12.10
2023-04-10T23:17:13.928Z,12.10
2023-04-10T23:20:02.771Z,12.00
2023-04-10T23:22:51.523Z,12.10
2023-04-10T23:25:41.548Z,12.20
2023-04-10T23:28:30.218Z,12.30
2023-04-10T23:31:18.871Z,12.30
2023-04-10T23:34:07.534Z,12.30
2023-04-10T23:36:57.148Z,12.20
2023-04-10T23:39:45.831Z,12.10
2023-04-10T23:42:35.923Z,12.20
2023-04-10T23:45:24.621Z,11.90
2023-04-10T23:48:13.241Z,12.10
2023-04-10T23:51:05.998Z,12.10
2023-04-10T23:53:54.939Z,12.00
2023-04-10T23:56:43.575Z,12.00
2023-04-10T23:59:34.021Z,12.00
